sensor_id;sensor_type;location;lat;lon;timestamp;pressure;altitude;pressure_sealevel;temperature;humidity
11041;BME280;5573;49.592;8.662;2023-12-07T00:00:23;100290.94;;;1.49;100.00
11041;BME280;5573;49.592;8.662;2023-12-07T00:02:51;100300.91;;;1.45;100.00
11041;BME280;5573;49.592;8.662;2023-12-07T00:05:19;100300.34;;;1.42;100.00
11041;BME280;5573;49.592;8.662;2023-12-07T00:07:46;100301.31;;;1.51;100.00
11041;BME280;5573;49.592;8.662;2023-12-07T00:10:14;100302.94;;;1.61;100.00
11041;BME280;5573;49.592;8.662;2023-12-07T00:12:43;100303.78;;;1.62;100.00
11041;BME280;5573;49.592;8.662;2023-12-07T00:15:12;100306.13;;;1.65;100.00
11041;BME280;5573;49.592;8.662;2023-12-07T00:17:39;100308.63;;;1.66;100.00
11041;BME280;5573;49.592;8.662;2023-12-07T00:20:08;100309.44;;;1.67;100.00
11041;BME280;5573;49.592;8.662;2023-12-07T00:22:36;100306.00;;;1.66;100.00
11041;BME280;5573;49.592;8.662;2023-12-07T00:25:05;100317.47;;;1.65;100.00
11041;BME280;5573;49.592;8.662;2023-12-07T00:27:33;100309.63;;;1.56;100.00
11041;BME280;5573;49.592;8.662;2023-12-07T00:30:02;100306.84;;;1.48;100.00
11041;BME280;5573;49.592;8.662;2023-12-07T00:32:30;100303.69;;;1.34;100.00
11041;BME280;5573;49.592;8.662;2023-12-07T00:34:58;100308.94;;;1.25;100.00
11041;BME280;5573;49.592;8.662;2023-12-07T00:37:26;100310.31;;;1.19;100.00
11041;BME280;5573;49.592;8.662;2023-12-07T00:39:54;100311.16;;;1.10;100.00
11041;BME280;5573;49.592;8.662;2023-12-07T00:42:23;100315.56;;;1.19;100.00
11041;BME280;5573;49.592;8.662;2023-12-07T00:44:51;100312.53;;;1.05;100.00
11041;BME280;5573;49.592;8.662;2023-12-07T00:47:20;100314.19;;;0.86;100.00
11041;BME280;5573;49.592;8.662;2023-12-07T00:49:48;100303.53;;;0.69;100.00
11041;BME280;5573;49.592;8.662;2023-12-07T00:52:16;100315.41;;;0.73;100.00
11041;BME280;5573;49.592;8.662;2023-12-07T00:54:44;100319.50;;;0.56;100.00
11041;BME280;5573;49.592;8.662;2023-12-07T00:57:12;100318.03;;;0.63;100.00
11041;BME280;5573;49.592;8.662;2023-12-07T00:59:40;100318.66;;;0.46;100.00
11041;BME280;5573;49.592;8.662;2023-12-07T01:02:08;100316.59;;;0.40;100.00
11041;BME280;5573;49.592;8.662;2023-12-07T01:04:37;100315.63;;;0.41;100.00
11041;BME280;5573;49.592;8.662;2023-12-07T01:07:05;100322.91;;;0.37;100.00
11041;BME280;5573;49.592;8.662;2023-12-07T01:09:33;100326.06;;;0.31;100.00
11041;BME280;5573;49.592;8.662;2023-12-07T01:12:02;100325.91;;;0.23;100.00
11041;BME280;5573;49.592;8.662;2023-12-07T01:14:30;100320.47;;;0.15;100.00
11041;BME280;5573;49.592;8.662;2023-12-07T01:16:59;100329.22;;;0.25;100.00
11041;BME280;5573;49.592;8.662;2023-12-07T01:19:27;100331.88;;;0.05;100.00
11041;BME280;5573;49.592;8.662;2023-12-07T01:21:56;100336.69;;;-0.01;100.00
11041;BME280;5573;49.592;8.662;2023-12-07T01:24:24;100338.59;;;-0.03;100.00
11041;BME280;5573;49.592;8.662;2023-12-07T01:26:52;100333.38;;;-0.03;100.00
11041;BME280;5573;49.592;8.662;2023-12-07T01:29:20;100336.38;;;-0.07;100.00
11041;BME280;5573;49.592;8.662;2023-12-07T01:31:47;100334.75;;;0.02;100.00
11041;BME280;5573;49.592;8.662;2023-12-07T01:34:16;100295.78;;;-0.22;100.00
11041;BME280;5573;49.592;8.662;2023-12-07T01:36:44;100345.97;;;0.04;100.00
11041;BME280;5573;49.592;8.662;2023-12-07T01:39:14;100354.59;;;-0.06;100.00
11041;BME280;5573;49.592;8.662;2023-12-07T01:41:43;100353.06;;;-0.08;100.00
11041;BME280;5573;49.592;8.662;2023-12-07T01:44:11;100361.91;;;0.00;100.00
11041;BME280;5573;49.592;8.662;2023-12-07T01:46:38;100350.09;;;0.06;100.00
11041;BME280;5573;49.592;8.662;2023-12-07T01:49:06;100354.41;;;0.17;100.00
11041;BME280;5573;49.592;8.662;2023-12-07T01:51:35;100353.16;;;0.11;100.00
11041;BME280;5573;49.592;8.662;2023-12-07T01:54:02;100354.72;;;0.23;100.00
11041;BME280;5573;49.592;8.662;2023-12-07T01:56:32;100356.09;;;0.27;100.00
11041;BME280;5573;49.592;8.662;2023-12-07T01:59:00;100358.31;;;0.22;100.00
11041;BME280;5573;49.592;8.662;2023-12-07T02:01:27;100359.00;;;0.24;100.00
11041;BME280;5573;49.592;8.662;2023-12-07T02:03:55;100353.63;;;0.26;100.00
11041;BME280;5573;49.592;8.662;2023-12-07T02:06:23;100350.03;;;0.27;100.00
11041;BME280;5573;49.592;8.662;2023-12-07T02:08:53;100345.22;;;0.22;100.00
11041;BME280;5573;49.592;8.662;2023-12-07T02:11:20;100351.34;;;0.12;100.00
11041;BME280;5573;49.592;8.662;2023-12-07T02:13:50;100348.56;;;0.04;100.00
11041;BME280;5573;49.592;8.662;2023-12-07T02:16:27;100347.19;;;-0.01;100.00
11041;BME280;5573;49.592;8.662;2023-12-07T02:19:04;100348.91;;;-0.11;100.00
11041;BME280;5573;49.592;8.662;2023-12-07T02:21:38;100354.34;;;-0.23;100.00
11041;BME280;5573;49.592;8.662;2023-12-07T02:24:09;100353.06;;;-0.29;100.00
11041;BME280;5573;49.592;8.662;2023-12-07T02:26:40;100349.13;;;-0.23;100.00
11041;BME280;5573;49.592;8.662;2023-12-07T02:29:08;100343.81;;;-0.33;100.00
11041;BME280;5573;49.592;8.662;2023-12-07T02:31:36;100346.41;;;-0.33;100.00
11041;BME280;5573;49.592;8.662;2023-12-07T02:34:04;100349.69;;;-0.40;100.00
11041;BME280;5573;49.592;8.662;2023-12-07T02:36:34;100359.56;;;-0.44;100.00
11041;BME280;5573;49.592;8.662;2023-12-07T02:39:05;100332.31;;;-0.62;100.00
11041;BME280;5573;49.592;8.662;2023-12-07T02:41:35;100351.34;;;-0.39;100.00
11041;BME280;5573;49.592;8.662;2023-12-07T02:44:05;100354.91;;;-0.40;100.00
11041;BME280;5573;49.592;8.662;2023-12-07T02:46:33;100352.13;;;-0.48;100.00
11041;BME280;5573;49.592;8.662;2023-12-07T02:49:01;100298.94;;;-0.90;100.00
11041;BME280;5573;49.592;8.662;2023-12-07T02:51:30;100348.22;;;-0.54;100.00
11041;BME280;5573;49.592;8.662;2023-12-07T02:53:57;100351.94;;;-0.57;100.00
11041;BME280;5573;49.592;8.662;2023-12-07T02:56:25;100345.97;;;-0.59;100.00
11041;BME280;5573;49.592;8.662;2023-12-07T02:58:53;100349.56;;;-0.60;100.00
11041;BME280;5573;49.592;8.662;2023-12-07T03:01:22;100343.25;;;-0.57;100.00
11041;BME280;5573;49.592;8.662;2023-12-07T03:03:50;100347.31;;;-0.64;100.00
11041;BME280;5573;49.592;8.662;2023-12-07T03:06:18;100346.03;;;-0.70;100.00
11041;BME280;5573;49.592;8.662;2023-12-07T03:08:46;100349.16;;;-0.76;100.00
11041;BME280;5573;49.592;8.662;2023-12-07T03:11:14;100352.09;;;-0.69;100.00
11041;BME280;5573;49.592;8.662;2023-12-07T03:13:41;100352.66;;;-0.66;100.00
11041;BME280;5573;49.592;8.662;2023-12-07T03:16:09;100357.06;;;-0.66;100.00
11041;BME280;5573;49.592;8.662;2023-12-07T03:18:39;100356.84;;;-0.74;100.00
11041;BME280;5573;49.592;8.662;2023-12-07T03:21:06;100354.25;;;-0.74;100.00
11041;BME280;5573;49.592;8.662;2023-12-07T03:23:35;100364.00;;;-0.76;100.00
11041;BME280;5573;49.592;8.662;2023-12-07T03:26:03;100362.91;;;-0.74;100.00
11041;BME280;5573;49.592;8.662;2023-12-07T03:28:31;100362.34;;;-0.77;100.00
11041;BME280;5573;49.592;8.662;2023-12-07T03:30:59;100368.41;;;-0.77;100.00
11041;BME280;5573;49.592;8.662;2023-12-07T03:33:27;100371.88;;;-0.76;100.00
11041;BME280;5573;49.592;8.662;2023-12-07T03:35:56;100374.72;;;-0.79;100.00
11041;BME280;5573;49.592;8.662;2023-12-07T03:38:24;100378.19;;;-0.79;100.00
11041;BME280;5573;49.592;8.662;2023-12-07T03:40:51;100381.84;;;-0.81;100.00
11041;BME280;5573;49.592;8.662;2023-12-07T03:43:19;100375.91;;;-0.72;100.00
11041;BME280;5573;49.592;8.662;2023-12-07T03:45:47;100374.59;;;-0.78;100.00
11041;BME280;5573;49.592;8.662;2023-12-07T03:48:15;100379.72;;;-0.76;100.00
11041;BME280;5573;49.592;8.662;2023-12-07T03:50:43;100373.53;;;-0.75;100.00
11041;BME280;5573;49.592;8.662;2023-12-07T03:53:12;100376.25;;;-0.77;100.00
11041;BME280;5573;49.592;8.662;2023-12-07T03:55:40;100377.16;;;-0.67;100.00
11041;BME280;5573;49.592;8.662;2023-12-07T03:58:08;100372.13;;;-0.79;100.00
11041;BME280;5573;49.592;8.662;2023-12-07T04:00:36;100378.28;;;-0.80;100.00
11041;BME280;5573;49.592;8.662;2023-12-07T04:03:03;100379.72;;;-0.76;100.00
11041;BME280;5573;49.592;8.662;2023-12-07T04:05:32;100374.22;;;-0.73;100.00
11041;BME280;5573;49.592;8.662;2023-12-07T04:08:00;100377.34;;;-0.79;100.00
11041;BME280;5573;49.592;8.662;2023-12-07T04:10:30;100373.00;;;-0.90;100.00
11041;BME280;5573;49.592;8.662;2023-12-07T04:12:58;100382.38;;;-0.87;100.00
11041;BME280;5573;49.592;8.662;2023-12-07T04:15:25;100381.28;;;-0.85;100.00
11041;BME280;5573;49.592;8.662;2023-12-07T04:17:54;100384.72;;;-0.84;100.00
11041;BME280;5573;49.592;8.662;2023-12-07T04:20:21;100385.50;;;-0.93;100.00
11041;BME280;5573;49.592;8.662;2023-12-07T04:22:49;100379.06;;;-0.89;100.00
11041;BME280;5573;49.592;8.662;2023-12-07T04:25:17;100389.25;;;-0.86;100.00
11041;BME280;5573;49.592;8.662;2023-12-07T04:27:46;100381.16;;;-0.83;100.00
11041;BME280;5573;49.592;8.662;2023-12-07T04:30:14;100383.53;;;-0.80;100.00
11041;BME280;5573;49.592;8.662;2023-12-07T04:32:42;100380.41;;;-0.74;100.00
11041;BME280;5573;49.592;8.662;2023-12-07T04:35:10;100389.91;;;-0.73;100.00
11041;BME280;5573;49.592;8.662;2023-12-07T04:37:38;100397.75;;;-0.73;100.00
11041;BME280;5573;49.592;8.662;2023-12-07T04:40:07;100390.97;;;-0.65;100.00
11041;BME280;5573;49.592;8.662;2023-12-07T04:42:37;100388.16;;;-0.52;100.00
11041;BME280;5573;49.592;8.662;2023-12-07T04:45:07;100392.06;;;-0.46;100.00
11041;BME280;5573;49.592;8.662;2023-12-07T04:47:35;100393.84;;;-0.47;100.00
11041;BME280;5573;49.592;8.662;2023-12-07T04:50:03;100403.00;;;-0.41;100.00
11041;BME280;5573;49.592;8.662;2023-12-07T04:52:31;100406.50;;;-0.31;100.00
11041;BME280;5573;49.592;8.662;2023-12-07T04:55:03;100411.03;;;-0.13;100.00
11041;BME280;5573;49.592;8.662;2023-12-07T04:57:31;100412.06;;;-0.04;100.00
11041;BME280;5573;49.592;8.662;2023-12-07T04:59:59;100418.72;;;0.00;100.00
11041;BME280;5573;49.592;8.662;2023-12-07T05:02:28;100417.59;;;0.23;100.00
11041;BME280;5573;49.592;8.662;2023-12-07T05:04:56;100412.34;;;0.23;100.00
11041;BME280;5573;49.592;8.662;2023-12-07T05:07:24;100401.00;;;0.43;100.00
11041;BME280;5573;49.592;8.662;2023-12-07T05:09:52;100414.50;;;0.39;100.00
11041;BME280;5573;49.592;8.662;2023-12-07T05:12:19;100408.31;;;0.40;100.00
11041;BME280;5573;49.592;8.662;2023-12-07T05:14:47;100400.75;;;0.56;100.00
11041;BME280;5573;49.592;8.662;2023-12-07T05:17:17;100395.97;;;0.61;100.00
11041;BME280;5573;49.592;8.662;2023-12-07T05:19:46;100400.66;;;0.67;100.00
11041;BME280;5573;49.592;8.662;2023-12-07T05:22:14;100399.69;;;0.59;100.00
11041;BME280;5573;49.592;8.662;2023-12-07T05:24:42;100394.63;;;0.67;100.00
11041;BME280;5573;49.592;8.662;2023-12-07T05:27:10;100398.47;;;0.72;100.00
11041;BME280;5573;49.592;8.662;2023-12-07T05:29:38;100395.97;;;0.71;100.00
11041;BME280;5573;49.592;8.662;2023-12-07T05:32:06;100389.31;;;0.57;100.00
11041;BME280;5573;49.592;8.662;2023-12-07T05:34:34;100394.28;;;0.60;100.00
11041;BME280;5573;49.592;8.662;2023-12-07T05:37:04;100397.91;;;0.59;100.00
11041;BME280;5573;49.592;8.662;2023-12-07T05:39:31;100389.75;;;0.62;100.00
11041;BME280;5573;49.592;8.662;2023-12-07T05:41:59;100393.47;;;0.60;100.00
11041;BME280;5573;49.592;8.662;2023-12-07T05:44:27;100398.47;;;0.72;100.00
11041;BME280;5573;49.592;8.662;2023-12-07T05:46:54;100397.66;;;0.72;100.00
11041;BME280;5573;49.592;8.662;2023-12-07T05:49:24;100405.13;;;0.76;100.00
11041;BME280;5573;49.592;8.662;2023-12-07T05:51:51;100396.69;;;0.73;100.00
11041;BME280;5573;49.592;8.662;2023-12-07T05:54:21;100401.75;;;0.55;100.00
11041;BME280;5573;49.592;8.662;2023-12-07T05:56:49;100399.34;;;0.42;100.00
11041;BME280;5573;49.592;8.662;2023-12-07T05:59:17;100408.56;;;0.37;100.00
11041;BME280;5573;49.592;8.662;2023-12-07T06:01:45;100406.16;;;0.55;100.00
11041;BME280;5573;49.592;8.662;2023-12-07T06:04:13;100415.06;;;0.42;100.00
11041;BME280;5573;49.592;8.662;2023-12-07T06:06:42;100406.53;;;0.40;100.00
11041;BME280;5573;49.592;8.662;2023-12-07T06:09:10;100411.56;;;0.32;100.00
11041;BME280;5573;49.592;8.662;2023-12-07T06:11:39;100406.19;;;0.34;100.00
11041;BME280;5573;49.592;8.662;2023-12-07T06:14:07;100412.53;;;0.31;100.00
11041;BME280;5573;49.592;8.662;2023-12-07T06:16:35;100416.81;;;0.32;100.00
11041;BME280;5573;49.592;8.662;2023-12-07T06:19:03;100413.16;;;0.44;100.00
11041;BME280;5573;49.592;8.662;2023-12-07T06:21:32;100417.38;;;0.36;100.00
11041;BME280;5573;49.592;8.662;2023-12-07T06:24:00;100403.75;;;0.42;100.00
11041;BME280;5573;49.592;8.662;2023-12-07T06:26:27;100402.88;;;0.32;100.00
11041;BME280;5573;49.592;8.662;2023-12-07T06:28:57;100400.25;;;0.32;100.00
11041;BME280;5573;49.592;8.662;2023-12-07T06:31:24;100397.09;;;0.38;100.00
11041;BME280;5573;49.592;8.662;2023-12-07T06:33:53;100399.44;;;0.31;100.00
11041;BME280;5573;49.592;8.662;2023-12-07T06:36:21;100406.97;;;2.47;100.00
11041;BME280;5573;49.592;8.662;2023-12-07T06:38:50;100390.75;;;3.24;100.00
11041;BME280;5573;49.592;8.662;2023-12-07T06:41:18;100411.34;;;3.11;98.95
11041;BME280;5573;49.592;8.662;2023-12-07T06:43:45;100408.16;;;2.62;97.86
11041;BME280;5573;49.592;8.662;2023-12-07T06:46:15;100411.16;;;1.93;98.04
11041;BME280;5573;49.592;8.662;2023-12-07T06:48:43;100406.72;;;1.17;100.00
11041;BME280;5573;49.592;8.662;2023-12-07T06:51:11;100406.13;;;0.94;100.00
11041;BME280;5573;49.592;8.662;2023-12-07T06:53:41;100411.88;;;0.69;100.00
11041;BME280;5573;49.592;8.662;2023-12-07T06:56:09;100410.38;;;0.46;100.00
11041;BME280;5573;49.592;8.662;2023-12-07T06:58:36;100421.06;;;0.54;100.00
11041;BME280;5573;49.592;8.662;2023-12-07T07:01:05;100427.41;;;0.61;100.00
11041;BME280;5573;49.592;8.662;2023-12-07T07:03:34;100437.44;;;0.46;100.00
11041;BME280;5573;49.592;8.662;2023-12-07T07:06:03;100435.75;;;0.45;100.00
11041;BME280;5573;49.592;8.662;2023-12-07T07:08:31;100440.09;;;0.26;100.00
11041;BME280;5573;49.592;8.662;2023-12-07T07:10:59;100425.81;;;0.19;100.00
11041;BME280;5573;49.592;8.662;2023-12-07T07:13:28;100425.53;;;0.12;100.00
11041;BME280;5573;49.592;8.662;2023-12-07T07:15:56;100425.41;;;-0.07;100.00
11041;BME280;5573;49.592;8.662;2023-12-07T07:18:23;100426.75;;;-0.13;100.00
11041;BME280;5573;49.592;8.662;2023-12-07T07:20:53;100430.00;;;-0.20;100.00
11041;BME280;5573;49.592;8.662;2023-12-07T07:23:21;100428.28;;;-0.31;100.00
11041;BME280;5573;49.592;8.662;2023-12-07T07:25:50;100426.88;;;-0.35;100.00
11041;BME280;5573;49.592;8.662;2023-12-07T07:28:17;100434.00;;;-0.37;100.00
11041;BME280;5573;49.592;8.662;2023-12-07T07:30:47;100438.44;;;-0.37;100.00
11041;BME280;5573;49.592;8.662;2023-12-07T07:33:15;100440.66;;;-0.33;100.00
11041;BME280;5573;49.592;8.662;2023-12-07T07:35:43;100446.41;;;-0.39;100.00
11041;BME280;5573;49.592;8.662;2023-12-07T07:38:12;100449.38;;;-0.43;100.00
11041;BME280;5573;49.592;8.662;2023-12-07T07:40:40;100454.03;;;-0.47;100.00
11041;BME280;5573;49.592;8.662;2023-12-07T07:43:08;100453.78;;;-0.44;100.00
11041;BME280;5573;49.592;8.662;2023-12-07T07:45:36;100463.47;;;-0.24;100.00
11041;BME280;5573;49.592;8.662;2023-12-07T07:48:05;100450.22;;;-0.43;100.00
11041;BME280;5573;49.592;8.662;2023-12-07T07:50:32;100459.03;;;-0.44;100.00
11041;BME280;5573;49.592;8.662;2023-12-07T07:53:02;100457.44;;;-0.35;100.00
11041;BME280;5573;49.592;8.662;2023-12-07T07:55:32;100459.44;;;-0.28;100.00
11041;BME280;5573;49.592;8.662;2023-12-07T07:58:00;100446.81;;;-0.23;100.00
11041;BME280;5573;49.592;8.662;2023-12-07T08:00:28;100444.06;;;-0.21;100.00
11041;BME280;5573;49.592;8.662;2023-12-07T08:02:57;100445.59;;;-0.19;100.00
11041;BME280;5573;49.592;8.662;2023-12-07T08:05:24;100440.03;;;-0.25;100.00
11041;BME280;5573;49.592;8.662;2023-12-07T08:07:52;100441.22;;;-0.29;100.00
11041;BME280;5573;49.592;8.662;2023-12-07T08:10:20;100439.38;;;-0.38;100.00
11041;BME280;5573;49.592;8.662;2023-12-07T08:12:50;100431.53;;;-0.38;100.00
11041;BME280;5573;49.592;8.662;2023-12-07T08:15:18;100430.69;;;-0.39;100.00
11041;BME280;5573;49.592;8.662;2023-12-07T08:17:47;100426.66;;;-0.43;100.00
11041;BME280;5573;49.592;8.662;2023-12-07T08:20:15;100416.78;;;-0.39;100.00
11041;BME280;5573;49.592;8.662;2023-12-07T08:22:43;100409.03;;;-0.41;100.00
11041;BME280;5573;49.592;8.662;2023-12-07T08:25:11;100403.56;;;-0.38;100.00
11041;BME280;5573;49.592;8.662;2023-12-07T08:27:39;100398.41;;;-0.28;100.00
11041;BME280;5573;49.592;8.662;2023-12-07T08:30:09;100395.13;;;-0.21;100.00
11041;BME280;5573;49.592;8.662;2023-12-07T08:32:37;100389.38;;;-0.15;100.00
11041;BME280;5573;49.592;8.662;2023-12-07T08:35:06;100385.38;;;-0.19;100.00
11041;BME280;5573;49.592;8.662;2023-12-07T08:37:37;100379.50;;;-0.32;100.00
11041;BME280;5573;49.592;8.662;2023-12-07T08:40:06;100382.94;;;-0.31;100.00
11041;BME280;5573;49.592;8.662;2023-12-07T08:42:34;100390.72;;;-0.41;100.00
11041;BME280;5573;49.592;8.662;2023-12-07T08:45:02;100397.81;;;-0.32;100.00
11041;BME280;5573;49.592;8.662;2023-12-07T08:47:31;100399.69;;;-0.23;100.00
11041;BME280;5573;49.592;8.662;2023-12-07T08:49:59;100405.16;;;-0.26;100.00
11041;BME280;5573;49.592;8.662;2023-12-07T08:52:27;100392.63;;;-0.22;100.00
11041;BME280;5573;49.592;8.662;2023-12-07T08:55:10;100395.34;;;-0.13;100.00
11041;BME280;5573;49.592;8.662;2023-12-07T08:57:38;100398.53;;;-0.09;100.00
11041;BME280;5573;49.592;8.662;2023-12-07T09:00:07;100398.66;;;-0.11;100.00
11041;BME280;5573;49.592;8.662;2023-12-07T09:02:36;100396.47;;;-0.06;100.00
11041;BME280;5573;49.592;8.662;2023-12-07T09:05:13;100401.34;;;-0.01;100.00
11041;BME280;5573;49.592;8.662;2023-12-07T09:07:41;100399.97;;;0.05;100.00
11041;BME280;5573;49.592;8.662;2023-12-07T09:10:09;100406.63;;;0.09;100.00
11041;BME280;5573;49.592;8.662;2023-12-07T09:12:37;100410.53;;;0.14;100.00
11041;BME280;5573;49.592;8.662;2023-12-07T09:15:07;100414.13;;;0.23;100.00
11041;BME280;5573;49.592;8.662;2023-12-07T09:17:37;100404.97;;;0.38;100.00
11041;BME280;5573;49.592;8.662;2023-12-07T09:20:07;100395.38;;;0.48;100.00
11041;BME280;5573;49.592;8.662;2023-12-07T09:22:40;100402.47;;;0.67;100.00
11041;BME280;5573;49.592;8.662;2023-12-07T09:25:09;100399.59;;;0.79;100.00
11041;BME280;5573;49.592;8.662;2023-12-07T09:27:38;100406.91;;;0.76;100.00
11041;BME280;5573;49.592;8.662;2023-12-07T09:30:07;100399.97;;;0.65;100.00
11041;BME280;5573;49.592;8.662;2023-12-07T09:32:39;100399.03;;;0.66;100.00
11041;BME280;5573;49.592;8.662;2023-12-07T09:35:11;100409.53;;;0.76;100.00
11041;BME280;5573;49.592;8.662;2023-12-07T09:37:42;100405.41;;;0.83;100.00
11041;BME280;5573;49.592;8.662;2023-12-07T09:40:14;100404.84;;;0.79;100.00
11041;BME280;5573;49.592;8.662;2023-12-07T09:42:44;100408.59;;;0.86;100.00
11041;BME280;5573;49.592;8.662;2023-12-07T09:45:12;100413.16;;;0.84;100.00
11041;BME280;5573;49.592;8.662;2023-12-07T09:47:43;100422.56;;;0.96;100.00
11041;BME280;5573;49.592;8.662;2023-12-07T09:50:15;100420.25;;;1.03;100.00
11041;BME280;5573;49.592;8.662;2023-12-07T09:52:47;100412.38;;;1.13;100.00
11041;BME280;5573;49.592;8.662;2023-12-07T09:55:29;100415.97;;;1.31;100.00
11041;BME280;5573;49.592;8.662;2023-12-07T09:57:58;100425.94;;;1.27;100.00
11041;BME280;5573;49.592;8.662;2023-12-07T10:00:26;100412.97;;;1.45;100.00
11041;BME280;5573;49.592;8.662;2023-12-07T10:02:56;100405.78;;;1.47;100.00
11041;BME280;5573;49.592;8.662;2023-12-07T10:05:25;100417.25;;;1.46;100.00
11041;BME280;5573;49.592;8.662;2023-12-07T10:07:53;100408.53;;;1.55;100.00
11041;BME280;5573;49.592;8.662;2023-12-07T10:10:21;100416.25;;;1.57;100.00
11041;BME280;5573;49.592;8.662;2023-12-07T10:12:51;100403.56;;;1.52;100.00
11041;BME280;5573;49.592;8.662;2023-12-07T10:15:20;100409.50;;;1.54;100.00
11041;BME280;5573;49.592;8.662;2023-12-07T10:17:49;100408.66;;;1.73;100.00
11041;BME280;5573;49.592;8.662;2023-12-07T10:20:20;100399.41;;;1.69;100.00
11041;BME280;5573;49.592;8.662;2023-12-07T10:23:00;100397.47;;;1.61;100.00
11041;BME280;5573;49.592;8.662;2023-12-07T10:25:29;100396.09;;;1.57;100.00
11041;BME280;5573;49.592;8.662;2023-12-07T10:27:57;100391.84;;;1.56;100.00
11041;BME280;5573;49.592;8.662;2023-12-07T10:30:26;100384.38;;;1.32;100.00
11041;BME280;5573;49.592;8.662;2023-12-07T10:32:54;100380.50;;;1.56;100.00
11041;BME280;5573;49.592;8.662;2023-12-07T10:35:24;100379.94;;;1.62;100.00
11041;BME280;5573;49.592;8.662;2023-12-07T10:37:52;100374.66;;;1.71;100.00
11041;BME280;5573;49.592;8.662;2023-12-07T10:40:20;100379.75;;;1.82;100.00
11041;BME280;5573;49.592;8.662;2023-12-07T10:42:48;100373.66;;;1.91;100.00
11041;BME280;5573;49.592;8.662;2023-12-07T10:45:16;100367.31;;;1.84;100.00
11041;BME280;5573;49.592;8.662;2023-12-07T10:47:44;100360.94;;;1.97;100.00
11041;BME280;5573;49.592;8.662;2023-12-07T10:50:13;100330.28;;;1.78;100.00
11041;BME280;5573;49.592;8.662;2023-12-07T10:52:48;100364.91;;;2.10;100.00
11041;BME280;5573;49.592;8.662;2023-12-07T10:55:20;100357.25;;;2.17;100.00
11041;BME280;5573;49.592;8.662;2023-12-07T10:57:52;100350.09;;;2.19;100.00
11041;BME280;5573;49.592;8.662;2023-12-07T11:00:21;100334.69;;;2.24;100.00
11041;BME280;5573;49.592;8.662;2023-12-07T11:03:06;100310.94;;;2.43;100.00
11041;BME280;5573;49.592;8.662;2023-12-07T11:05:36;100330.31;;;2.42;100.00
11041;BME280;5573;49.592;8.662;2023-12-07T11:08:08;100319.44;;;2.37;100.00
11041;BME280;5573;49.592;8.662;2023-12-07T11:10:43;100316.56;;;2.30;99.77
11041;BME280;5573;49.592;8.662;2023-12-07T11:13:18;100315.84;;;2.38;100.00
11041;BME280;5573;49.592;8.662;2023-12-07T11:15:48;100308.91;;;2.64;100.00
11041;BME280;5573;49.592;8.662;2023-12-07T11:18:16;100310.91;;;2.98;99.74
11041;BME280;5573;49.592;8.662;2023-12-07T11:20:45;100305.84;;;2.86;99.60
11041;BME280;5573;49.592;8.662;2023-12-07T11:23:17;100302.09;;;2.89;100.00
11041;BME280;5573;49.592;8.662;2023-12-07T11:25:46;100311.16;;;2.94;99.92
11041;BME280;5573;49.592;8.662;2023-12-07T11:28:15;100300.19;;;2.99;98.30
11041;BME280;5573;49.592;8.662;2023-12-07T11:30:44;100292.84;;;3.03;98.49
11041;BME280;5573;49.592;8.662;2023-12-07T11:33:15;100275.22;;;3.21;97.92
11041;BME280;5573;49.592;8.662;2023-12-07T11:36:05;100274.91;;;3.24;97.03
11041;BME280;5573;49.592;8.662;2023-12-07T11:38:37;100270.09;;;3.37;96.71
11041;BME280;5573;49.592;8.662;2023-12-07T11:41:05;100274.38;;;3.38;96.71
11041;BME280;5573;49.592;8.662;2023-12-07T11:43:42;100233.28;;;3.19;96.72
11041;BME280;5573;49.592;8.662;2023-12-07T11:46:13;100265.03;;;3.43;96.23
11041;BME280;5573;49.592;8.662;2023-12-07T11:48:46;100254.09;;;3.56;95.99
11041;BME280;5573;49.592;8.662;2023-12-07T11:51:16;100252.38;;;3.47;95.25
11041;BME280;5573;49.592;8.662;2023-12-07T11:53:45;100241.84;;;3.47;96.43
11041;BME280;5573;49.592;8.662;2023-12-07T11:56:16;100234.97;;;3.54;96.34
11041;BME280;5573;49.592;8.662;2023-12-07T11:58:47;100230.59;;;3.63;96.75
11041;BME280;5573;49.592;8.662;2023-12-07T12:01:16;100220.09;;;3.71;96.11
11041;BME280;5573;49.592;8.662;2023-12-07T12:03:44;100227.50;;;3.67;94.78
11041;BME280;5573;49.592;8.662;2023-12-07T12:06:12;100194.81;;;3.52;93.87
11041;BME280;5573;49.592;8.662;2023-12-07T12:08:40;100218.44;;;3.70;94.30
11041;BME280;5573;49.592;8.662;2023-12-07T12:11:10;100206.38;;;3.59;93.93
11041;BME280;5573;49.592;8.662;2023-12-07T12:13:38;100216.78;;;3.69;94.33
11041;BME280;5573;49.592;8.662;2023-12-07T12:16:07;100199.44;;;3.58;92.90
11041;BME280;5573;49.592;8.662;2023-12-07T12:18:36;100202.47;;;3.71;92.95
11041;BME280;5573;49.592;8.662;2023-12-07T12:21:06;100200.22;;;3.84;92.63
11041;BME280;5573;49.592;8.662;2023-12-07T12:23:35;100195.28;;;3.81;93.17
11041;BME280;5573;49.592;8.662;2023-12-07T12:26:03;100177.94;;;3.71;92.71
11041;BME280;5573;49.592;8.662;2023-12-07T12:28:33;100176.47;;;3.76;91.29
11041;BME280;5573;49.592;8.662;2023-12-07T12:31:04;100167.91;;;3.74;92.02
11041;BME280;5573;49.592;8.662;2023-12-07T12:33:36;100159.31;;;3.72;91.76
11041;BME280;5573;49.592;8.662;2023-12-07T12:36:06;100151.47;;;3.80;92.86
11041;BME280;5573;49.592;8.662;2023-12-07T12:38:34;100162.50;;;3.76;91.87
11041;BME280;5573;49.592;8.662;2023-12-07T12:41:10;100160.03;;;3.82;91.91
11041;BME280;5573;49.592;8.662;2023-12-07T12:43:40;100159.41;;;3.88;92.06
11041;BME280;5573;49.592;8.662;2023-12-07T12:46:09;100171.56;;;3.81;92.66
11041;BME280;5573;49.592;8.662;2023-12-07T12:48:52;100161.59;;;3.59;90.84
11041;BME280;5573;49.592;8.662;2023-12-07T12:51:20;100178.03;;;3.53;91.46
11041;BME280;5573;49.592;8.662;2023-12-07T12:53:50;100168.84;;;3.57;91.85
11041;BME280;5573;49.592;8.662;2023-12-07T12:56:19;100174.81;;;3.67;91.84
11041;BME280;5573;49.592;8.662;2023-12-07T12:58:50;100167.38;;;3.63;92.17
11041;BME280;5573;49.592;8.662;2023-12-07T13:01:18;100169.22;;;3.70;92.09
11041;BME280;5573;49.592;8.662;2023-12-07T13:03:47;100156.16;;;3.61;91.69
11041;BME280;5573;49.592;8.662;2023-12-07T13:06:16;100157.75;;;3.46;92.95